createdAt,value
2023-05-04T00:01:16.377Z,25.13
2023-05-04T00:05:21.995Z,20.90
2023-05-04T00:09:27.356Z,23.90
2023-05-04T00:13:30.725Z,15.15
2023-05-04T00:17:34.384Z,22.58
2023-05-04T00:21:39.199Z,20.70
2023-05-04T00:25:42.500Z,17.73
2023-05-04T00:29:46.508Z,19.17
2023-05-04T00:33:49.705Z,16.08
2023-05-04T00:37:54.579Z,24.20
2023-05-04T00:41:57.820Z,21.02
2023-05-04T00:46:01.427Z,15.38
2023-05-04T00:50:07.000Z,20.45
2023-05-04T00:54:13.263Z,28.08
2023-05-04T00:58:17.154Z,18.60
2023-05-04T01:02:21.920Z,19.83
2023-05-04T01:06:38.022Z,16.85
2023-05-04T01:10:48.941Z,15.57
2023-05-04T01:14:54.419Z,18.08
2023-05-04T01:18:57.991Z,19.15
2023-05-04T01:23:03.749Z,15.45
2023-05-04T01:27:13.663Z,18.70
2023-05-04T01:31:20.845Z,11.90
2023-05-04T01:35:24.564Z,15.73
2023-05-04T01:39:30.154Z,17.77
2023-05-04T01:43:34.031Z,13.00
2023-05-04T01:47:37.435Z,16.10
2023-05-04T01:51:42.191Z,14.75
2023-05-04T01:55:49.126Z,12.25
2023-05-04T01:59:52.940Z,12.98
2023-05-04T02:03:56.585Z,10.82
2023-05-04T02:08:00.220Z,14.63
2023-05-04T02:12:05.047Z,12.70
2023-05-04T02:16:11.710Z,13.27
2023-05-04T02:20:15.339Z,10.88
2023-05-04T02:24:19.024Z,15.30
2023-05-04T02:28:23.653Z,19.08
2023-05-04T02:32:28.139Z,18.20
2023-05-04T02:36:31.699Z,18.33
2023-05-04T02:40:35.210Z,21.80
2023-05-04T02:44:40.194Z,17.73
2023-05-04T02:48:43.609Z,9.80
2023-05-04T02:52:46.847Z,15.20
2023-05-04T02:56:50.480Z,14.40
2023-05-04T03:00:57.409Z,17.02
2023-05-04T03:05:00.928Z,16.50
2023-05-04T03:09:05.007Z,10.65
2023-05-04T03:13:08.828Z,15.50
2023-05-04T03:17:13.891Z,14.27
2023-05-04T03:21:17.475Z,15.85
2023-05-04T03:25:20.824Z,14.13
2023-05-04T03:29:27.600Z,12.80
2023-05-04T03:33:32.106Z,16.15
2023-05-04T03:37:35.926Z,14.02
2023-05-04T03:41:39.069Z,22.00
2023-05-04T03:45:42.610Z,15.02
2023-05-04T03:49:47.798Z,14.70
2023-05-04T03:53:51.254Z,15.55
2023-05-04T03:57:54.472Z,11.82
2023-05-04T04:01:57.809Z,18.98
2023-05-04T04:06:03.607Z,12.02
2023-05-04T04:10:08.126Z,12.85
2023-05-04T04:14:11.360Z,17.40
2023-05-04T04:18:14.915Z,13.38
2023-05-04T04:22:19.771Z,14.70
2023-05-04T04:26:23.654Z,15.07
2023-05-04T04:30:26.758Z,17.65
2023-05-04T04:34:30.354Z,19.60
2023-05-04T04:38:35.028Z,22.77
2023-05-04T04:42:38.895Z,12.50
2023-05-04T04:46:44.776Z,12.90
2023-05-04T04:50:49.353Z,13.10
2023-05-04T04:54:54.224Z,13.00
2023-05-04T04:58:58.964Z,13.02
2023-05-04T05:03:03.273Z,13.48
2023-05-04T05:07:08.878Z,11.38
2023-05-04T05:11:13.511Z,13.77
2023-05-04T05:15:17.630Z,14.13
2023-05-04T05:19:23.152Z,11.45
2023-05-04T05:23:28.081Z,13.50
2023-05-04T05:27:37.429Z,11.63
2023-05-04T05:31:41.559Z,17.17
2023-05-04T05:35:45.008Z,18.83
2023-05-04T05:39:49.838Z,15.70
2023-05-04T05:43:55.020Z,9.52
2023-05-04T05:47:59.354Z,15.40
2023-05-04T05:52:02.946Z,24.95
2023-05-04T05:56:06.772Z,12.98
2023-05-04T06:00:13.349Z,16.05
2023-05-04T06:04:17.122Z,14.55
2023-05-04T06:08:20.609Z,21.55
2023-05-04T06:12:23.962Z,17.00
2023-05-04T06:16:29.920Z,17.60
2023-05-04T06:20:33.405Z,15.77
2023-05-04T06:24:36.977Z,23.20
2023-05-04T06:28:41.267Z,16.25
2023-05-04T06:32:47.466Z,19.35
2023-05-04T06:36:51.459Z,19.45
2023-05-04T06:40:55.133Z,13.48
2023-05-04T06:45:01.531Z,15.75
2023-05-04T06:49:07.313Z,16.00
2023-05-04T06:53:12.807Z,14.95
2023-05-04T06:57:16.404Z,15.57
2023-05-04T07:01:19.869Z,14.05
2023-05-04T07:05:25.233Z,16.23
2023-05-04T07:09:30.235Z,20.23
2023-05-04T07:13:33.933Z,13.15
2023-05-04T07:17:38.466Z,11.07
2023-05-04T07:21:43.157Z,15.30
2023-05-04T07:25:46.423Z,17.30
2023-05-04T07:29:51.502Z,10.90
2023-05-04T07:33:55.013Z,10.32
2023-05-04T07:37:59.860Z,14.05
2023-05-04T07:42:04.151Z,12.52
2023-05-04T07:46:08.066Z,10.50
2023-05-04T07:50:12.479Z,11.75
2023-05-04T07:54:18.919Z,12.60
2023-05-04T07:58:23.604Z,7.72
2023-05-04T08:02:26.707Z,9.95
2023-05-04T08:06:30.683Z,7.90
2023-05-04T08:10:37.701Z,7.07
2023-05-04T08:14:41.307Z,10.23
2023-05-04T08:18:45.503Z,13.30
2023-05-04T08:22:49.220Z,10.00
2023-05-04T08:27:04.243Z,12.80
2023-05-04T08:31:11.626Z,4.32
2023-05-04T08:35:15.535Z,7.18
2023-05-04T08:39:20.877Z,10.05
2023-05-04T08:43:27.474Z,6.10
2023-05-04T08:47:31.222Z,7.93
2023-05-04T08:51:37.487Z,5.57
2023-05-04T08:55:45.353Z,4.15
2023-05-04T08:59:52.612Z,6.60
2023-05-04T09:03:56.217Z,4.97
2023-05-04T09:07:59.627Z,11.93
2023-05-04T09:12:03.236Z,7.93
2023-05-04T09:16:14.033Z,8.07
2023-05-04T09:20:17.974Z,12.27
2023-05-04T09:24:31.931Z,7.28
2023-05-04T09:28:37.546Z,8.15
2023-05-04T09:32:49.039Z,6.35
2023-05-04T09:37:02.686Z,7.03
2023-05-04T09:41:06.744Z,6.72
2023-05-04T09:45:11.377Z,6.82
2023-05-04T09:49:16.430Z,5.63
2023-05-04T09:53:23.828Z,6.95
2023-05-04T09:57:28.592Z,6.50
2023-05-04T10:01:32.497Z,6.88
2023-05-04T10:05:40.510Z,5.15
2023-05-04T10:09:44.278Z,8.60
2023-05-04T10:13:48.285Z,4.93
2023-05-04T10:18:10.612Z,5.97
2023-05-04T10:22:40.185Z,5.80
2023-05-04T10:26:59.931Z,6.35
2023-05-04T10:31:04.756Z,10.40
2023-05-04T10:35:09.374Z,6.85
2023-05-04T10:39:24.941Z,3.83
2023-05-04T10:43:30.535Z,4.05
2023-05-04T10:47:36.193Z,2.38
2023-05-04T10:51:49.010Z,4.28
2023-05-04T10:55:54.653Z,3.25
2023-05-04T10:59:59.642Z,4.55
2023-05-04T11:04:03.561Z,3.15
2023-05-04T11:08:17.591Z,1.73
2023-05-04T11:12:23.022Z,2.75
2023-05-04T11:16:27.519Z,3.67
2023-05-04T11:20:31.141Z,3.17
2023-05-04T11:24:45.207Z,1.80
2023-05-04T11:28:51.326Z,1.92
2023-05-04T11:32:57.666Z,2.22
2023-05-04T11:37:03.039Z,5.25
2023-05-04T11:41:06.378Z,3.25
2023-05-04T11:45:21.944Z,6.18
2023-05-04T11:49:27.171Z,4.50
2023-05-04T11:53:39.424Z,3.17
2023-05-04T11:57:43.102Z,1.33
2023-05-04T12:01:48.152Z,1.30
2023-05-04T12:05:53.073Z,1.65
2023-05-04T12:09:56.491Z,2.22
2023-05-04T12:14:05.381Z,1.73
2023-05-04T12:18:22.822Z,2.00
2023-05-04T12:22:30.426Z,1.35
2023-05-04T12:26:34.862Z,2.30
2023-05-04T12:30:38.480Z,1.55
2023-05-04T12:34:43.397Z,2.42
2023-05-04T12:38:47.056Z,3.40
2023-05-04T12:42:51.043Z,8.18
2023-05-04T12:46:56.043Z,3.35
2023-05-04T12:51:02.218Z,2.05
2023-05-04T12:55:07.177Z,2.80
2023-05-04T12:59:10.561Z,2.00
2023-05-04T13:03:15.258Z,2.63
2023-05-04T13:07:20.634Z,1.70
2023-05-04T13:11:25.350Z,1.75
2023-05-04T13:15:29.279Z,3.83
2023-05-04T13:19:33.245Z,1.23
2023-05-04T13:23:38.175Z,1.70
2023-05-04T13:27:43.589Z,1.63
2023-05-04T13:31:47.163Z,5.28
2023-05-04T13:35:50.604Z,1.13
2023-05-04T13:39:55.396Z,1.95
2023-05-04T13:43:58.827Z,0.90
2023-05-04T13:48:04.706Z,0.60
2023-05-04T13:52:08.668Z,1.67
2023-05-04T13:56:13.932Z,0.65
2023-05-04T14:00:19.222Z,1.80
2023-05-04T14:04:23.456Z,1.88
2023-05-04T14:08:27.574Z,1.77
2023-05-04T14:12:32.311Z,4.97
2023-05-04T14:16:37.484Z,2.15
2023-05-04T14:20:41.393Z,0.50
2023-05-04T14:24:46.687Z,6.22
2023-05-04T14:28:51.989Z,0.70
2023-05-04T14:32:56.161Z,0.32
2023-05-04T14:37:00.122Z,0.50
2023-05-04T14:41:04.261Z,0.40
2023-05-04T14:45:12.670Z,1.15
2023-05-04T14:49:34.869Z,4.97
2023-05-04T14:53:41.264Z,0.85
2023-05-04T14:57:46.658Z,0.75
2023-05-04T15:01:52.411Z,0.80
2023-05-04T15:05:56.525Z,1.38
2023-05-04T15:10:00.412Z,0.20
2023-05-04T15:14:03.596Z,1.52
2023-05-04T15:18:09.065Z,3.05
2023-05-04T15:22:12.534Z,0.30
2023-05-04T15:26:16.636Z,1.23
2023-05-04T15:30:20.781Z,0.50
2023-05-04T15:34:26.020Z,5.15
2023-05-04T15:38:29.447Z,1.13
2023-05-04T15:42:36.773Z,3.92
2023-05-04T15:46:40.144Z,5.80
2023-05-04T15:50:45.688Z,2.78
2023-05-04T15:54:49.190Z,1.38
2023-05-04T15:58:53.162Z,1.20
2023-05-04T16:02:56.906Z,3.58
2023-05-04T16:07:02.656Z,2.53
2023-05-04T16:11:07.806Z,3.17
2023-05-04T16:15:12.535Z,1.50
2023-05-04T16:19:15.666Z,1.80
2023-05-04T16:23:21.499Z,4.47
2023-05-04T16:27:26.890Z,2.47
2023-05-04T16:31:31.076Z,3.60
2023-05-04T16:35:36.967Z,8.75
2023-05-04T16:39:41.197Z,3.15
2023-05-04T16:43:44.954Z,3.55
2023-05-04T16:47:48.480Z,5.72
2023-05-04T16:51:53.844Z,5.22
2023-05-04T16:55:58.274Z,6.72
2023-05-04T17:00:01.664Z,3.42
2023-05-04T17:04:05.009Z,3.88
2023-05-04T17:08:09.753Z,9.82
2023-05-04T17:12:15.268Z,6.32
2023-05-04T17:16:19.688Z,4.72
2023-05-04T17:20:25.211Z,3.78
2023-05-04T17:24:29.114Z,3.67
2023-05-04T17:28:33.675Z,5.38
2023-05-04T17:32:37.768Z,4.97
2023-05-04T17:36:40.977Z,3.63
2023-05-04T17:40:48.286Z,9.30
2023-05-04T17:44:53.061Z,5.43
2023-05-04T17:48:58.661Z,3.38
2023-05-04T17:53:01.987Z,11.20
2023-05-04T17:57:06.847Z,2.75
2023-05-04T18:01:11.745Z,6.07
2023-05-04T18:05:17.950Z,3.35
2023-05-04T18:09:21.151Z,7.30
2023-05-04T18:13:24.933Z,3.58
2023-05-04T18:17:30.573Z,6.68
2023-05-04T18:21:36.391Z,6.93
2023-05-04T18:25:40.556Z,2.65
2023-05-04T18:29:44.109Z,6.38
2023-05-04T18:33:49.687Z,3.65
2023-05-04T18:37:52.831Z,7.15
2023-05-04T18:41:56.563Z,2.50
2023-05-04T18:46:00.581Z,4.13
2023-05-04T18:50:06.675Z,4.95
2023-05-04T18:54:11.020Z,7.97
2023-05-04T18:58:14.673Z,2.58
2023-05-04T19:02:18.523Z,1.77
2023-05-04T19:06:23.824Z,4.60
2023-05-04T19:10:27.117Z,3.95
2023-05-04T19:14:32.749Z,10.30
2023-05-04T19:18:36.502Z,11.95
2023-05-04T19:22:42.290Z,5.93
2023-05-04T19:26:45.978Z,7.38
2023-05-04T19:30:51.992Z,4.30
2023-05-04T19:34:56.361Z,8.13
2023-05-04T19:39:01.684Z,6.60
2023-05-04T19:43:06.651Z,7.13
2023-05-04T19:47:10.400Z,6.97
2023-05-04T19:51:17.757Z,6.22
2023-05-04T19:55:23.292Z,8.25
2023-05-04T19:59:27.068Z,6.75
2023-05-04T20:03:30.638Z,5.85
2023-05-04T20:07:34.027Z,6.05
2023-05-04T20:11:40.104Z,5.78
2023-05-04T20:15:43.567Z,8.65
2023-05-04T20:19:47.818Z,11.82
2023-05-04T20:23:51.129Z,7.30
2023-05-04T20:27:56.765Z,7.35
2023-05-04T20:32:02.086Z,9.18
2023-05-04T20:36:07.349Z,8.20
2023-05-04T20:40:12.518Z,11.98
2023-05-04T20:44:17.342Z,6.22
2023-05-04T20:48:20.545Z,6.18
2023-05-04T20:52:24.783Z,7.65
2023-05-04T20:56:29.104Z,9.10
2023-05-04T21:00:34.081Z,8.15
2023-05-04T21:04:37.738Z,8.40
2023-05-04T21:08:41.913Z,7.28
2023-05-04T21:12:45.297Z,10.10
2023-05-04T21:16:50.438Z,9.02
2023-05-04T21:20:53.575Z,12.63
2023-05-04T21:24:57.713Z,13.30
2023-05-04T21:29:01.570Z,10.57
2023-05-04T21:33:07.113Z,7.10
2023-05-04T21:37:10.378Z,10.88
2023-05-04T21:41:15.331Z,8.55
2023-05-04T21:45:18.873Z,8.73
2023-05-04T21:49:24.188Z,15.43
2023-05-04T21:53:27.597Z,14.02
2023-05-04T21:57:34.084Z,11.73
2023-05-04T22:01:37.234Z,9.43
2023-05-04T22:05:42.638Z,6.95
2023-05-04T22:09:45.992Z,8.52
2023-05-04T22:13:50.107Z,9.60
2023-05-04T22:17:53.363Z,13.50
2023-05-04T22:21:58.339Z,11.45
2023-05-04T22:26:01.961Z,24.33
2023-05-04T22:30:06.114Z,11.82
2023-05-04T22:34:10.157Z,11.93
2023-05-04T22:38:15.602Z,13.85
2023-05-04T22:42:18.827Z,11.27
2023-05-04T22:46:22.562Z,10.00
2023-05-04T22:50:26.520Z,8.75
2023-05-04T22:54:32.134Z,11.50
2023-05-04T22:58:35.128Z,7.22
2023-05-04T23:02:38.682Z,9.77
2023-05-04T23:06:42.322Z,10.10
2023-05-04T23:10:50.097Z,8.73
2023-05-04T23:14:54.719Z,8.23
2023-05-04T23:18:59.102Z,8.02
2023-05-04T23:23:02.306Z,11.80
2023-05-04T23:27:07.665Z,9.73
2023-05-04T23:31:11.548Z,6.00
2023-05-04T23:35:15.717Z,6.00
2023-05-04T23:39:19.038Z,10.18
2023-05-04T23:43:24.823Z,7.40
2023-05-04T23:47:28.414Z,10.85
2023-05-04T23:51:33.590Z,6.15
2023-05-04T23:55:36.885Z,5.85
2023-05-04T23:59:42.889Z,8.43
